sensor_id;sensor_type;location;lat;lon;timestamp;pressure;altitude;pressure_sealevel;temperature;humidity
5296;BME280;2670;42.720;23.336;2023-04-04T00:01:19;-22666.34;;;7.71;100.00
5296;BME280;2670;42.720;23.336;2023-04-04T00:03:46;-22663.38;;;7.61;100.00
5296;BME280;2670;42.720;23.336;2023-04-04T00:06:17;-22665.44;;;7.68;100.00
5296;BME280;2670;42.720;23.336;2023-04-04T00:08:44;-22665.31;;;7.67;100.00
5296;BME280;2670;42.720;23.336;2023-04-04T00:11:11;-22664.41;;;7.64;100.00
5296;BME280;2670;42.720;23.336;2023-04-04T00:13:38;-22663.66;;;7.62;100.00
5296;BME280;2670;42.720;23.336;2023-04-04T00:16:05;-22663.06;;;7.60;100.00
5296;BME280;2670;42.720;23.336;2023-04-04T00:18:32;-22663.97;;;7.63;100.00
5296;BME280;2670;42.720;23.336;2023-04-04T00:20:59;-22663.06;;;7.60;100.00
5296;BME280;2670;42.720;23.336;2023-04-04T00:23:27;-22663.97;;;7.63;100.00
5296;BME280;2670;42.720;23.336;2023-04-04T00:25:53;-22664.72;;;7.65;100.00
5296;BME280;2670;42.720;23.336;2023-04-04T00:28:21;-22666.50;;;7.71;100.00
5296;BME280;2670;42.720;23.336;2023-04-04T00:30:47;-22666.19;;;7.70;100.00
5296;BME280;2670;42.720;23.336;2023-04-04T00:33:14;-22666.66;;;7.72;100.00
5296;BME280;2670;42.720;23.336;2023-04-04T00:35:41;-22667.53;;;7.75;100.00
5296;BME280;2670;42.720;23.336;2023-04-04T00:38:08;-22667.38;;;7.74;100.00
5296;BME280;2670;42.720;23.336;2023-04-04T00:40:41;-22670.06;;;7.84;100.00
5296;BME280;2670;42.720;23.336;2023-04-04T00:43:08;-22668.13;;;7.77;100.00
5296;BME280;2670;42.720;23.336;2023-04-04T00:45:35;-22665.44;;;7.68;100.00
5296;BME280;2670;42.720;23.336;2023-04-04T00:48:03;-22668.72;;;7.79;100.00
5296;BME280;2670;42.720;23.336;2023-04-04T00:50:30;-22669.75;;;7.83;100.00
5296;BME280;2670;42.720;23.336;2023-04-04T00:52:56;-22667.53;;;7.75;100.00
5296;BME280;2670;42.720;23.336;2023-04-04T00:55:23;-22669.03;;;7.80;100.00
5296;BME280;2670;42.720;23.336;2023-04-04T00:57:52;-22668.44;;;7.78;100.00
5296;BME280;2670;42.720;23.336;2023-04-04T01:00:19;-22668.56;;;7.79;100.00
5296;BME280;2670;42.720;23.336;2023-04-04T01:02:46;-22670.06;;;7.84;100.00
5296;BME280;2670;42.720;23.336;2023-04-04T01:05:13;-22671.09;;;7.87;100.00
5296;BME280;2670;42.720;23.336;2023-04-04T01:07:43;-22670.06;;;7.84;100.00
5296;BME280;2670;42.720;23.336;2023-04-04T01:10:10;-22670.06;;;7.84;100.00
5296;BME280;2670;42.720;23.336;2023-04-04T01:12:38;-22671.25;;;7.88;100.00
5296;BME280;2670;42.720;23.336;2023-04-04T01:15:08;-22673.19;;;7.94;100.00
5296;BME280;2670;42.720;23.336;2023-04-04T01:17:35;-22671.84;;;7.90;100.00
5296;BME280;2670;42.720;23.336;2023-04-04T01:20:05;-22672.16;;;7.91;100.00
5296;BME280;2670;42.720;23.336;2023-04-04T01:22:33;-22674.06;;;7.97;100.00
5296;BME280;2670;42.720;23.336;2023-04-04T01:25:01;-22672.00;;;7.90;100.00
5296;BME280;2670;42.720;23.336;2023-04-04T01:27:31;-22674.66;;;7.99;100.00
5296;BME280;2670;42.720;23.336;2023-04-04T01:29:58;-22677.03;;;8.08;100.00
5296;BME280;2670;42.720;23.336;2023-04-04T01:32:28;-22673.91;;;7.97;100.00
5296;BME280;2670;42.720;23.336;2023-04-04T01:35:03;-22674.97;;;8.01;100.00
5296;BME280;2670;42.720;23.336;2023-04-04T01:37:37;-22675.84;;;8.04;100.00
5296;BME280;2670;42.720;23.336;2023-04-04T01:40:10;-22677.94;;;8.11;100.00
5296;BME280;2670;42.720;23.336;2023-04-04T01:42:40;-22673.47;;;7.95;100.00
5296;BME280;2670;42.720;23.336;2023-04-04T01:45:09;-22675.25;;;8.02;100.00
5296;BME280;2670;42.720;23.336;2023-04-04T01:47:37;-22674.38;;;7.98;100.00
5296;BME280;2670;42.720;23.336;2023-04-04T01:50:06;-22674.66;;;7.99;100.00
5296;BME280;2670;42.720;23.336;2023-04-04T01:52:33;-22677.34;;;8.09;100.00
5296;BME280;2670;42.720;23.336;2023-04-04T01:55:00;-22675.25;;;8.02;100.00
5296;BME280;2670;42.720;23.336;2023-04-04T01:57:26;-22672.16;;;7.91;100.00
5296;BME280;2670;42.720;23.336;2023-04-04T01:59:54;-22672.72;;;7.93;100.00
5296;BME280;2670;42.720;23.336;2023-04-04T02:02:22;-22672.88;;;7.93;100.00
5296;BME280;2670;42.720;23.336;2023-04-04T02:04:49;-22669.75;;;7.83;100.00
5296;BME280;2670;42.720;23.336;2023-04-04T02:07:16;-22671.84;;;7.90;100.00
5296;BME280;2670;42.720;23.336;2023-04-04T02:09:45;-22672.44;;;7.92;100.00
5296;BME280;2670;42.720;23.336;2023-04-04T02:12:11;-22672.00;;;7.90;100.00
5296;BME280;2670;42.720;23.336;2023-04-04T02:14:38;-22672.00;;;7.90;100.00
5296;BME280;2670;42.720;23.336;2023-04-04T02:17:06;-22672.72;;;7.93;100.00
5296;BME280;2670;42.720;23.336;2023-04-04T02:19:33;-22670.97;;;7.87;100.00
5296;BME280;2670;42.720;23.336;2023-04-04T02:22:00;-22671.84;;;7.90;100.00
5296;BME280;2670;42.720;23.336;2023-04-04T02:24:26;-22671.09;;;7.87;100.00
5296;BME280;2670;42.720;23.336;2023-04-04T02:26:53;-22671.41;;;7.88;100.00
5296;BME280;2670;42.720;23.336;2023-04-04T02:29:20;-22672.16;;;7.91;100.00
5296;BME280;2670;42.720;23.336;2023-04-04T02:31:47;-22671.84;;;7.90;100.00
5296;BME280;2670;42.720;23.336;2023-04-04T02:34:15;-22671.84;;;7.90;100.00
5296;BME280;2670;42.720;23.336;2023-04-04T02:36:41;-22673.03;;;7.94;100.00
5296;BME280;2670;42.720;23.336;2023-04-04T02:39:08;-22671.25;;;7.88;100.00
5296;BME280;2670;42.720;23.336;2023-04-04T02:41:35;-22671.53;;;7.89;100.00
5296;BME280;2670;42.720;23.336;2023-04-04T02:44:02;-22671.69;;;7.89;100.00
5296;BME280;2670;42.720;23.336;2023-04-04T02:46:28;-22671.41;;;7.88;100.00
5296;BME280;2670;42.720;23.336;2023-04-04T02:48:55;-22668.28;;;7.78;100.00
5296;BME280;2670;42.720;23.336;2023-04-04T02:51:23;-22667.84;;;7.76;100.00
5296;BME280;2670;42.720;23.336;2023-04-04T02:53:50;-22669.03;;;7.80;100.00
5296;BME280;2670;42.720;23.336;2023-04-04T02:56:16;-22668.44;;;7.78;100.00
5296;BME280;2670;42.720;23.336;2023-04-04T02:58:43;-22669.75;;;7.83;100.00
5296;BME280;2670;42.720;23.336;2023-04-04T03:01:10;-22668.72;;;7.79;100.00
5296;BME280;2670;42.720;23.336;2023-04-04T03:03:36;-22670.97;;;7.87;100.00
5296;BME280;2670;42.720;23.336;2023-04-04T03:06:03;-22669.91;;;7.83;100.00
5296;BME280;2670;42.720;23.336;2023-04-04T03:08:31;-22672.44;;;7.92;100.00
5296;BME280;2670;42.720;23.336;2023-04-04T03:10:59;-22670.22;;;7.84;100.00
5296;BME280;2670;42.720;23.336;2023-04-04T03:13:27;-22670.97;;;7.87;100.00
5296;BME280;2670;42.720;23.336;2023-04-04T03:15:58;-22671.69;;;7.89;100.00
5296;BME280;2670;42.720;23.336;2023-04-04T03:18:27;-22670.06;;;7.84;100.00
5296;BME280;2670;42.720;23.336;2023-04-04T03:20:53;-22669.03;;;7.80;100.00
5296;BME280;2670;42.720;23.336;2023-04-04T03:23:20;-22668.72;;;7.79;100.00
5296;BME280;2670;42.720;23.336;2023-04-04T03:25:48;-22669.03;;;7.80;100.00
5296;BME280;2670;42.720;23.336;2023-04-04T03:28:15;-22671.69;;;7.89;100.00
5296;BME280;2670;42.720;23.336;2023-04-04T03:30:42;-22669.91;;;7.83;100.00
5296;BME280;2670;42.720;23.336;2023-04-04T03:33:09;-22669.31;;;7.81;100.00
5296;BME280;2670;42.720;23.336;2023-04-04T03:35:36;-22671.09;;;7.87;100.00
5296;BME280;2670;42.720;23.336;2023-04-04T03:38:03;-22669.47;;;7.82;100.00
5296;BME280;2670;42.720;23.336;2023-04-04T03:40:31;-22669.91;;;7.83;100.00
5296;BME280;2670;42.720;23.336;2023-04-04T03:42:59;-22667.84;;;7.76;100.00
5296;BME280;2670;42.720;23.336;2023-04-04T03:45:26;-22668.13;;;7.77;100.00
5296;BME280;2670;42.720;23.336;2023-04-04T03:47:53;-22668.88;;;7.80;100.00
5296;BME280;2670;42.720;23.336;2023-04-04T03:50:20;-22669.16;;;7.81;100.00
5296;BME280;2670;42.720;23.336;2023-04-04T03:52:47;-22670.06;;;7.84;100.00
5296;BME280;2670;42.720;23.336;2023-04-04T03:55:13;-22671.84;;;7.90;100.00
5296;BME280;2670;42.720;23.336;2023-04-04T03:57:40;-22672.16;;;7.91;100.00
5296;BME280;2670;42.720;23.336;2023-04-04T04:00:09;-22673.19;;;7.94;100.00
5296;BME280;2670;42.720;23.336;2023-04-04T04:02:36;-22672.28;;;7.91;100.00
5296;BME280;2670;42.720;23.336;2023-04-04T04:05:03;-22672.88;;;7.93;100.00
5296;BME280;2670;42.720;23.336;2023-04-04T04:07:30;-22672.44;;;7.92;100.00
5296;BME280;2670;42.720;23.336;2023-04-04T04:09:57;-22673.03;;;7.94;100.00
5296;BME280;2670;42.720;23.336;2023-04-04T04:12:23;-22673.78;;;7.96;100.00
5296;BME280;2670;42.720;23.336;2023-04-04T04:14:50;-22673.47;;;7.95;100.00
5296;BME280;2670;42.720;23.336;2023-04-04T04:17:18;-22673.34;;;7.95;100.00
5296;BME280;2670;42.720;23.336;2023-04-04T04:19:45;-22672.88;;;7.93;100.00
5296;BME280;2670;42.720;23.336;2023-04-04T04:22:12;-22672.28;;;7.91;100.00
5296;BME280;2670;42.720;23.336;2023-04-04T04:24:38;-22673.19;;;7.94;100.00
5296;BME280;2670;42.720;23.336;2023-04-04T04:27:05;-22673.03;;;7.94;100.00
5296;BME280;2670;42.720;23.336;2023-04-04T04:29:32;-22672.44;;;7.92;100.00
5296;BME280;2670;42.720;23.336;2023-04-04T04:31:58;-22674.06;;;7.97;100.00
5296;BME280;2670;42.720;23.336;2023-04-04T04:34:27;-22674.66;;;7.99;100.00
5296;BME280;2670;42.720;23.336;2023-04-04T04:36:54;-22674.97;;;8.01;100.00
5296;BME280;2670;42.720;23.336;2023-04-04T04:39:20;-22675.25;;;8.02;100.00
5296;BME280;2670;42.720;23.336;2023-04-04T04:41:47;-22677.63;;;8.10;100.00
5296;BME280;2670;42.720;23.336;2023-04-04T04:44:14;-22676.59;;;8.06;100.00
5296;BME280;2670;42.720;23.336;2023-04-04T04:46:41;-22675.41;;;8.02;100.00
5296;BME280;2670;42.720;23.336;2023-04-04T04:49:07;-22674.81;;;8.00;100.00
5296;BME280;2670;42.720;23.336;2023-04-04T04:51:35;-22674.66;;;7.99;100.00
5296;BME280;2670;42.720;23.336;2023-04-04T04:54:03;-22673.19;;;7.94;100.00
5296;BME280;2670;42.720;23.336;2023-04-04T04:56:30;-22673.63;;;7.96;100.00
5296;BME280;2670;42.720;23.336;2023-04-04T04:58:56;-22677.63;;;8.10;100.00
5296;BME280;2670;42.720;23.336;2023-04-04T05:01:23;-22677.19;;;8.08;100.00
5296;BME280;2670;42.720;23.336;2023-04-04T05:03:50;-22679.72;;;8.17;100.00
5296;BME280;2670;42.720;23.336;2023-04-04T05:06:16;-22678.09;;;8.11;100.00
5296;BME280;2670;42.720;23.336;2023-04-04T05:08:45;-22678.97;;;8.14;100.00
5296;BME280;2670;42.720;23.336;2023-04-04T05:11:11;-22678.38;;;8.12;100.00
5296;BME280;2670;42.720;23.336;2023-04-04T05:13:38;-22678.38;;;8.12;100.00
5296;BME280;2670;42.720;23.336;2023-04-04T05:16:05;-22679.41;;;8.16;100.00
5296;BME280;2670;42.720;23.336;2023-04-04T05:18:32;-22678.09;;;8.11;100.00
5296;BME280;2670;42.720;23.336;2023-04-04T05:20:59;-22678.81;;;8.14;100.00
5296;BME280;2670;42.720;23.336;2023-04-04T05:23:26;-22678.97;;;8.14;100.00
5296;BME280;2670;42.720;23.336;2023-04-04T05:25:54;-22682.25;;;8.26;100.00
5296;BME280;2670;42.720;23.336;2023-04-04T05:28:20;-22681.50;;;8.23;100.00
5296;BME280;2670;42.720;23.336;2023-04-04T05:30:48;-22678.38;;;8.12;100.00
5296;BME280;2670;42.720;23.336;2023-04-04T05:33:14;-22677.50;;;8.09;100.00
5296;BME280;2670;42.720;23.336;2023-04-04T05:35:41;-22678.81;;;8.14;100.00
5296;BME280;2670;42.720;23.336;2023-04-04T05:38:08;-22678.53;;;8.13;100.00
5296;BME280;2670;42.720;23.336;2023-04-04T05:40:34;-22676.44;;;8.06;100.00
5296;BME280;2670;42.720;23.336;2023-04-04T05:43:02;-22678.09;;;8.11;100.00
5296;BME280;2670;42.720;23.336;2023-04-04T05:45:29;-22677.78;;;8.10;100.00
5296;BME280;2670;42.720;23.336;2023-04-04T05:47:56;-22678.97;;;8.14;100.00
5296;BME280;2670;42.720;23.336;2023-04-04T05:50:23;-22680.16;;;8.18;100.00
5296;BME280;2670;42.720;23.336;2023-04-04T05:52:52;-22678.97;;;8.14;100.00
5296;BME280;2670;42.720;23.336;2023-04-04T05:55:19;-22678.22;;;8.12;100.00
5296;BME280;2670;42.720;23.336;2023-04-04T05:57:46;-22681.19;;;8.22;100.00
5296;BME280;2670;42.720;23.336;2023-04-04T06:00:18;-22680.00;;;8.18;100.00
5296;BME280;2670;42.720;23.336;2023-04-04T06:02:45;-22680.75;;;8.20;100.00
5296;BME280;2670;42.720;23.336;2023-04-04T06:05:11;-22681.19;;;8.22;100.00
5296;BME280;2670;42.720;23.336;2023-04-04T06:07:38;-22684.47;;;8.33;100.00
5296;BME280;2670;42.720;23.336;2023-04-04T06:10:06;-22686.84;;;8.41;100.00
5296;BME280;2670;42.720;23.336;2023-04-04T06:12:33;-22683.88;;;8.31;100.00
5296;BME280;2670;42.720;23.336;2023-04-04T06:14:59;-22682.25;;;8.26;100.00
5296;BME280;2670;42.720;23.336;2023-04-04T06:17:27;-22687.44;;;8.43;100.00
5296;BME280;2670;42.720;23.336;2023-04-04T06:19:54;-22686.25;;;8.39;100.00
5296;BME280;2670;42.720;23.336;2023-04-04T06:22:21;-22687.44;;;8.43;100.00
5296;BME280;2670;42.720;23.336;2023-04-04T06:24:48;-22688.78;;;8.48;100.00
5296;BME280;2670;42.720;23.336;2023-04-04T06:27:14;-22685.38;;;8.36;100.00
5296;BME280;2670;42.720;23.336;2023-04-04T06:29:41;-22674.06;;;7.97;100.00
5296;BME280;2670;42.720;23.336;2023-04-04T06:32:08;-22665.91;;;7.69;100.00
5296;BME280;2670;42.720;23.336;2023-04-04T06:34:36;-22656.53;;;7.37;100.00
5296;BME280;2670;42.720;23.336;2023-04-04T06:37:03;-22651.63;;;7.20;100.00
5296;BME280;2670;42.720;23.336;2023-04-04T06:39:30;-22648.22;;;7.09;100.00
5296;BME280;2670;42.720;23.336;2023-04-04T06:41:58;-22642.56;;;6.89;100.00
5296;BME280;2670;42.720;23.336;2023-04-04T06:44:25;-22636.91;;;6.70;100.00
5296;BME280;2670;42.720;23.336;2023-04-04T06:46:52;-22632.75;;;6.56;100.00
5296;BME280;2670;42.720;23.336;2023-04-04T06:49:19;-22630.81;;;6.49;100.00
5296;BME280;2670;42.720;23.336;2023-04-04T06:51:47;-22625.75;;;6.32;100.00
5296;BME280;2670;42.720;23.336;2023-04-04T06:54:16;-22618.16;;;6.06;100.00
5296;BME280;2670;42.720;23.336;2023-04-04T06:56:45;-22613.25;;;5.89;100.00
5296;BME280;2670;42.720;23.336;2023-04-04T06:59:12;-22615.94;;;5.98;100.00
5296;BME280;2670;42.720;23.336;2023-04-04T07:01:39;-22614.88;;;5.94;100.00
5296;BME280;2670;42.720;23.336;2023-04-04T07:04:05;-22612.78;;;5.87;100.00
5296;BME280;2670;42.720;23.336;2023-04-04T07:06:32;-22605.66;;;5.63;100.00
5296;BME280;2670;42.720;23.336;2023-04-04T07:09:00;-22605.78;;;5.63;100.00
5296;BME280;2670;42.720;23.336;2023-04-04T07:11:27;-22606.09;;;5.64;100.00
5296;BME280;2670;42.720;23.336;2023-04-04T07:13:54;-22602.81;;;5.53;100.00
5296;BME280;2670;42.720;23.336;2023-04-04T07:16:21;-22603.25;;;5.55;100.00
5296;BME280;2670;42.720;23.336;2023-04-04T07:18:47;-22596.56;;;5.32;100.00
5296;BME280;2670;42.720;23.336;2023-04-04T07:21:14;-22595.66;;;5.29;100.00
5296;BME280;2670;42.720;23.336;2023-04-04T07:23:41;-22589.41;;;5.07;100.00
5296;BME280;2670;42.720;23.336;2023-04-04T07:26:09;-22588.97;;;5.06;100.00
5296;BME280;2670;42.720;23.336;2023-04-04T07:28:36;-22589.25;;;5.07;100.00
5296;BME280;2670;42.720;23.336;2023-04-04T07:31:03;-22587.47;;;5.00;100.00
5296;BME280;2670;42.720;23.336;2023-04-04T07:33:30;-22586.88;;;4.98;100.00
5296;BME280;2670;42.720;23.336;2023-04-04T07:35:56;-22592.25;;;5.17;100.00
5296;BME280;2670;42.720;23.336;2023-04-04T07:38:24;-22587.16;;;4.99;100.00
5296;BME280;2670;42.720;23.336;2023-04-04T07:40:51;-22583.75;;;4.88;100.00
5296;BME280;2670;42.720;23.336;2023-04-04T07:43:19;-22585.22;;;4.93;100.00
5296;BME280;2670;42.720;23.336;2023-04-04T07:45:47;-22583.88;;;4.88;100.00
5296;BME280;2670;42.720;23.336;2023-04-04T07:48:13;-22580.00;;;4.75;100.00
5296;BME280;2670;42.720;23.336;2023-04-04T07:50:40;-22578.69;;;4.70;100.00
5296;BME280;2670;42.720;23.336;2023-04-04T07:53:07;-22576.88;;;4.64;100.00
5296;BME280;2670;42.720;23.336;2023-04-04T07:55:33;-22577.34;;;4.66;100.00
5296;BME280;2670;42.720;23.336;2023-04-04T07:58:00;-22579.28;;;4.72;100.00
5296;BME280;2670;42.720;23.336;2023-04-04T08:00:28;-22577.34;;;4.66;100.00
5296;BME280;2670;42.720;23.336;2023-04-04T08:02:56;-22575.53;;;4.60;100.00
5296;BME280;2670;42.720;23.336;2023-04-04T08:05:25;-22577.19;;;4.65;100.00
5296;BME280;2670;42.720;23.336;2023-04-04T08:07:52;-22576.88;;;4.64;100.00
5296;BME280;2670;42.720;23.336;2023-04-04T08:10:18;-22575.53;;;4.60;100.00
5296;BME280;2670;42.720;23.336;2023-04-04T08:12:46;-22572.13;;;4.48;100.00
5296;BME280;2670;42.720;23.336;2023-04-04T08:15:13;-22574.81;;;4.57;100.00
5296;BME280;2670;42.720;23.336;2023-04-04T08:17:41;-22571.22;;;4.45;100.00
5296;BME280;2670;42.720;23.336;2023-04-04T08:20:09;-22572.56;;;4.49;100.00
5296;BME280;2670;42.720;23.336;2023-04-04T08:22:37;-22573.00;;;4.51;100.00
5296;BME280;2670;42.720;23.336;2023-04-04T08:25:04;-22570.78;;;4.43;100.00
5296;BME280;2670;42.720;23.336;2023-04-04T08:27:31;-22568.97;;;4.37;100.00
5296;BME280;2670;42.720;23.336;2023-04-04T08:29:58;-22569.72;;;4.40;100.00
5296;BME280;2670;42.720;23.336;2023-04-04T08:32:25;-22567.50;;;4.32;100.00
5296;BME280;2670;42.720;23.336;2023-04-04T08:34:53;-22566.75;;;4.30;100.00
5296;BME280;2670;42.720;23.336;2023-04-04T08:37:19;-22562.56;;;4.15;100.00
5296;BME280;2670;42.720;23.336;2023-04-04T08:39:46;-22564.22;;;4.21;100.00
5296;BME280;2670;42.720;23.336;2023-04-04T08:42:14;-22566.59;;;4.29;100.00
5296;BME280;2670;42.720;23.336;2023-04-04T08:44:49;-22565.69;;;4.26;100.00
5296;BME280;2670;42.720;23.336;2023-04-04T08:47:18;-22561.53;;;4.12;100.00
5296;BME280;2670;42.720;23.336;2023-04-04T08:49:46;-22561.09;;;4.10;100.00
5296;BME280;2670;42.720;23.336;2023-04-04T08:52:17;-22560.19;;;4.07;100.00
5296;BME280;2670;42.720;23.336;2023-04-04T08:54:46;-22562.13;;;4.14;100.00
5296;BME280;2670;42.720;23.336;2023-04-04T08:57:13;-22560.47;;;4.08;100.00
5296;BME280;2670;42.720;23.336;2023-04-04T08:59:40;-22558.53;;;4.02;100.00
5296;BME280;2670;42.720;23.336;2023-04-04T09:02:14;-22560.19;;;4.07;100.00
5296;BME280;2670;42.720;23.336;2023-04-04T09:04:43;-22557.06;;;3.96;100.00
5296;BME280;2670;42.720;23.336;2023-04-04T09:07:13;-22558.84;;;4.03;100.00
5296;BME280;2670;42.720;23.336;2023-04-04T09:09:43;-22559.13;;;4.04;100.00
5296;BME280;2670;42.720;23.336;2023-04-04T09:12:12;-22559.28;;;4.04;100.00
5296;BME280;2670;42.720;23.336;2023-04-04T09:14:39;-22560.78;;;4.09;100.00
5296;BME280;2670;42.720;23.336;2023-04-04T09:17:07;-22558.25;;;4.00;100.00
5296;BME280;2670;42.720;23.336;2023-04-04T09:19:35;-22559.13;;;4.04;100.00
5296;BME280;2670;42.720;23.336;2023-04-04T09:22:02;-22558.69;;;4.02;100.00
5296;BME280;2670;42.720;23.336;2023-04-04T09:24:37;-22561.09;;;4.10;100.00
5296;BME280;2670;42.720;23.336;2023-04-04T09:27:06;-22560.47;;;4.08;100.00
5296;BME280;2670;42.720;23.336;2023-04-04T09:29:34;-22558.84;;;4.03;100.00
5296;BME280;2670;42.720;23.336;2023-04-04T09:32:01;-22561.22;;;4.11;100.00
5296;BME280;2670;42.720;23.336;2023-04-04T09:34:28;-22559.28;;;4.04;100.00
5296;BME280;2670;42.720;23.336;2023-04-04T09:36:56;-22558.53;;;4.02;100.00
5296;BME280;2670;42.720;23.336;2023-04-04T09:39:24;-22557.78;;;3.99;100.00
5296;BME280;2670;42.720;23.336;2023-04-04T09:41:51;-22559.00;;;4.03;100.00
5296;BME280;2670;42.720;23.336;2023-04-04T09:44:19;-22559.75;;;4.06;100.00
5296;BME280;2670;42.720;23.336;2023-04-04T09:46:47;-22554.38;;;3.87;100.00
5296;BME280;2670;42.720;23.336;2023-04-04T09:49:18;-22550.19;;;3.73;100.00
5296;BME280;2670;42.720;23.336;2023-04-04T09:51:52;-22555.56;;;3.91;100.00
5296;BME280;2670;42.720;23.336;2023-04-04T09:54:20;-22554.66;;;3.88;100.00
5296;BME280;2670;42.720;23.336;2023-04-04T09:56:47;-22552.56;;;3.81;100.00
5296;BME280;2670;42.720;23.336;2023-04-04T09:59:16;-22553.16;;;3.83;100.00
5296;BME280;2670;42.720;23.336;2023-04-04T10:01:45;-22552.44;;;3.81;100.00
5296;BME280;2670;42.720;23.336;2023-04-04T10:04:13;-22557.34;;;3.97;100.00
5296;BME280;2670;42.720;23.336;2023-04-04T10:06:42;-22553.91;;;3.86;100.00
5296;BME280;2670;42.720;23.336;2023-04-04T10:09:09;-22557.19;;;3.97;100.00
5296;BME280;2670;42.720;23.336;2023-04-04T10:11:35;-22560.03;;;4.07;100.00
5296;BME280;2670;42.720;23.336;2023-04-04T10:14:03;-22560.63;;;4.09;100.00
5296;BME280;2670;42.720;23.336;2023-04-04T10:16:33;-22554.81;;;3.89;100.00
5296;BME280;2670;42.720;23.336;2023-04-04T10:19:04;-22555.56;;;3.91;100.00
5296;BME280;2670;42.720;23.336;2023-04-04T10:21:32;-22557.06;;;3.96;100.00
5296;BME280;2670;42.720;23.336;2023-04-04T10:23:59;-22558.69;;;4.02;100.00
5296;BME280;2670;42.720;23.336;2023-04-04T10:26:29;-22564.06;;;4.20;100.00
5296;BME280;2670;42.720;23.336;2023-04-04T10:28:55;-22557.06;;;3.96;100.00
5296;BME280;2670;42.720;23.336;2023-04-04T10:31:23;-22558.09;;;4.00;100.00
5296;BME280;2670;42.720;23.336;2023-04-04T10:33:59;-22559.59;;;4.05;100.00
5296;BME280;2670;42.720;23.336;2023-04-04T10:36:37;-22559.75;;;4.06;100.00
5296;BME280;2670;42.720;23.336;2023-04-04T10:39:10;-22562.41;;;4.15;100.00
5296;BME280;2670;42.720;23.336;2023-04-04T10:41:39;-22561.53;;;4.12;100.00
5296;BME280;2670;42.720;23.336;2023-04-04T10:44:11;-22560.94;;;4.10;100.00
5296;BME280;2670;42.720;23.336;2023-04-04T10:46:42;-22559.13;;;4.04;100.00
5296;BME280;2670;42.720;23.336;2023-04-04T10:49:12;-22560.19;;;4.07;100.00
5296;BME280;2670;42.720;23.336;2023-04-04T10:51:41;-22559.88;;;4.06;100.00
5296;BME280;2670;42.720;23.336;2023-04-04T10:54:09;-22557.66;;;3.98;100.00
5296;BME280;2670;42.720;23.336;2023-04-04T10:56:37;-22555.72;;;3.92;100.00
5296;BME280;2670;42.720;23.336;2023-04-04T10:59:14;-22557.78;;;3.99;100.00
5296;BME280;2670;42.720;23.336;2023-04-04T11:01:54;-22558.69;;;4.02;100.00
5296;BME280;2670;42.720;23.336;2023-04-04T11:04:31;-22557.78;;;3.99;100.00
5296;BME280;2670;42.720;23.336;2023-04-04T11:07:11;-22555.41;;;3.91;100.00
5296;BME280;2670;42.720;23.336;2023-04-04T11:09:58;-22557.34;;;3.97;100.00
5296;BME280;2670;42.720;23.336;2023-04-04T11:12:28;-22556.00;;;3.93;100.00
5296;BME280;2670;42.720;23.336;2023-04-04T11:15:11;-22556.47;;;3.94;100.00
5296;BME280;2670;42.720;23.336;2023-04-04T11:17:59;-22558.84;;;4.03;100.00
5296;BME280;2670;42.720;23.336;2023-04-04T11:20:29;-22561.53;;;4.12;100.00
5296;BME280;2670;42.720;23.336;2023-04-04T11:23:08;-22555.41;;;3.91;100.00
5296;BME280;2670;42.720;23.336;2023-04-04T11:25:37;-22552.13;;;3.80;100.00
5296;BME280;2670;42.720;23.336;2023-04-04T11:28:12;-22555.84;;;3.92;100.00
5296;BME280;2670;42.720;23.336;2023-04-04T11:30:42;-22553.63;;;3.85;100.00
5296;BME280;2670;42.720;23.336;2023-04-04T11:33:13;-22555.56;;;3.91;100.00
5296;BME280;2670;42.720;23.336;2023-04-04T11:35:45;-22556.47;;;3.94;100.00
5296;BME280;2670;42.720;23.336;2023-04-04T11:38:15;-22556.59;;;3.95;100.00
5296;BME280;2670;42.720;23.336;2023-04-04T11:40:51;-22554.06;;;3.86;100.00
5296;BME280;2670;42.720;23.336;2023-04-04T11:43:19;-22549.00;;;3.69;100.00
5296;BME280;2670;42.720;23.336;2023-04-04T11:45:46;-22548.25;;;3.66;100.00
5296;BME280;2670;42.720;23.336;2023-04-04T11:48:14;-22551.09;;;3.76;100.00
5296;BME280;2670;42.720;23.336;2023-04-04T11:50:41;-22552.28;;;3.80;100.00
5296;BME280;2670;42.720;23.336;2023-04-04T11:53:10;-22550.03;;;3.72;100.00
5296;BME280;2670;42.720;23.336;2023-04-04T11:55:40;-22547.94;;;3.65;100.00
5296;BME280;2670;42.720;23.336;2023-04-04T11:58:09;-22548.84;;;3.68;100.00
5296;BME280;2670;42.720;23.336;2023-04-04T12:00:36;-22551.81;;;3.79;100.00
5296;BME280;2670;42.720;23.336;2023-04-04T12:03:04;-22547.94;;;3.65;100.00
5296;BME280;2670;42.720;23.336;2023-04-04T12:05:33;-22546.16;;;3.59;100.00
5296;BME280;2670;42.720;23.336;2023-04-04T12:08:00;-22544.66;;;3.54;100.00
5296;BME280;2670;42.720;23.336;2023-04-04T12:10:28;-22541.09;;;3.42;100.00
5296;BME280;2670;42.720;23.336;2023-04-04T12:12:59;-22540.78;;;3.41;100.00
5296;BME280;2670;42.720;23.336;2023-04-04T12:15:27;-22538.69;;;3.34;100.00
5296;BME280;2670;42.720;23.336;2023-04-04T12:17:54;-22538.41;;;3.33;100.00
5296;BME280;2670;42.720;23.336;2023-04-04T12:20:22;-22543.03;;;3.48;100.00
5296;BME280;2670;42.720;23.336;2023-04-04T12:22:49;-22539.88;;;3.38;100.00
5296;BME280;2670;42.720;23.336;2023-04-04T12:25:18;-22539.59;;;3.37;100.00
5296;BME280;2670;42.720;23.336;2023-04-04T12:27:45;-22539.75;;;3.37;100.00
5296;BME280;2670;42.720;23.336;2023-04-04T12:30:15;-22533.03;;;3.14;100.00
5296;BME280;2670;42.720;23.336;2023-04-04T12:32:43;-22534.06;;;3.18;100.00
5296;BME280;2670;42.720;23.336;2023-04-04T12:35:11;-22536.31;;;3.25;100.00
5296;BME280;2670;42.720;23.336;2023-04-04T12:37:55;-22534.22;;;3.18;100.00
5296;BME280;2670;42.720;23.336;2023-04-04T12:40:22;-22534.50;;;3.19;100.00
5296;BME280;2670;42.720;23.336;2023-04-04T12:42:49;-22534.97;;;3.21;100.00
5296;BME280;2670;42.720;23.336;2023-04-04T12:45:24;-22532.88;;;3.14;100.00
5296;BME280;2670;42.720;23.336;2023-04-04T12:47:51;-22531.38;;;3.09;100.00
5296;BME280;2670;42.720;23.336;2023-04-04T12:50:20;-22527.78;;;2.96;100.00
5296;BME280;2670;42.720;23.336;2023-04-04T12:52:50;-22528.09;;;2.97;100.00
5296;BME280;2670;42.720;23.336;2023-04-04T12:55:19;-22527.06;;;2.94;100.00
5296;BME280;2670;42.720;23.336;2023-04-04T12:57:46;-22527.66;;;2.96;100.00
5296;BME280;2670;42.720;23.336;2023-04-04T13:00:13;-22526.91;;;2.93;100.00
5296;BME280;2670;42.720;23.336;2023-04-04T13:02:45;-22523.75;;;2.83;100.00
5296;BME280;2670;42.720;23.336;2023-04-04T13:05:12;-22525.25;;;2.88;100.00